Time;durP1;ratioP1;P1;durP2;ratioP2;P2;SDS_P1;SDS_P2;PMS_P1;PMS_P2;Temp;Humidity;BMP_temperature;BMP_pressure;BME280_temperature;BME280_humidity;BME280_pressure;Samples;Min_cycle;Max_cycle;Signal;HPM_P1;HPM_P2
2021/06/27 00:01:12;;;;;;;268.58;139.27;;;;;;;18.16;85.90;98055.53;5093785;28;20237;-74
2021/06/27 00:03:38;;;;;;;269.00;133.52;;;;;;;18.10;86.29;98061.22;5092019;28;20219;-74
2021/06/27 00:06:05;;;;;;;269.60;138.82;;;;;;;18.21;86.72;98069.22;5092211;28;20239;-74
2021/06/27 00:08:32;;;;;;;271.20;139.32;;;;;;;18.13;84.95;98061.00;5091622;28;20223;-73
2021/06/27 00:10:59;;;;;;;274.15;141.63;;;;;;;18.39;84.90;98059.13;5092467;28;20292;-74
2021/06/27 00:13:26;;;;;;;285.17;148.15;;;;;;;18.25;85.85;98060.16;5093629;28;20220;-74
2021/06/27 00:15:54;;;;;;;274.77;145.57;;;;;;;18.01;85.93;98056.59;5093747;27;20243;-73
2021/06/27 00:18:23;;;;;;;282.13;156.10;;;;;;;18.03;85.85;98047.63;5091855;28;20232;-73
2021/06/27 00:20:54;;;;;;;299.15;168.57;;;;;;;18.10;85.14;98055.94;5094087;28;20779;-74
2021/06/27 00:23:24;;;;;;;268.95;151.52;;;;;;;18.01;85.27;98051.31;5091979;28;20219;-74
2021/06/27 00:25:51;;;;;;;273.50;149.23;;;;;;;18.01;84.83;98051.31;5094736;27;20728;-73
2021/06/27 00:28:18;;;;;;;277.02;159.45;;;;;;;17.97;84.78;98053.31;5094644;28;20213;-73
2021/06/27 00:30:59;;;;;;;284.35;168.50;;;;;;;17.98;85.57;98049.75;5053361;28;20558;-73
2021/06/27 00:33:26;;;;;;;301.42;174.95;;;;;;;18.39;85.22;98050.38;5028409;28;20326;-73
2021/06/27 00:35:53;;;;;;;295.00;174.23;;;;;;;18.34;84.49;98044.59;5028220;28;20260;-74
2021/06/27 00:38:20;;;;;;;296.63;170.77;;;;;;;18.28;84.08;98054.63;5029285;28;20214;-74
2021/06/27 00:40:47;;;;;;;264.70;127.88;;;;;;;18.49;84.86;98054.91;5026661;28;20243;-74
2021/06/27 00:43:14;;;;;;;263.48;125.60;;;;;;;18.32;85.11;98046.50;5027487;28;20226;-74
2021/06/27 00:45:41;;;;;;;266.08;128.57;;;;;;;18.03;84.19;98047.63;5027128;28;20247;-75
2021/06/27 00:48:10;;;;;;;266.77;127.82;;;;;;;18.05;84.96;98048.38;5028359;28;20229;-74
2021/06/27 00:50:38;;;;;;;250.23;122.78;;;;;;;17.95;86.32;98043.84;5025753;28;20330;-74
2021/06/27 00:53:05;;;;;;;282.65;131.90;;;;;;;17.79;85.91;98039.63;5024891;28;20270;-74
2021/06/27 00:55:32;;;;;;;267.45;128.77;;;;;;;17.90;86.68;98039.72;5028556;28;20269;-74
2021/06/27 00:57:58;;;;;;;275.17;126.68;;;;;;;17.94;86.21;98047.41;5024664;28;20230;-74
2021/06/27 01:00:27;;;;;;;277.10;128.73;;;;;;;17.91;86.37;98045.84;5026646;28;20645;-74
2021/06/27 01:02:54;;;;;;;263.85;125.88;;;;;;;18.04;86.30;98046.66;5021665;28;20217;-74
2021/06/27 01:05:24;;;;;;;271.83;124.82;;;;;;;17.85;85.45;98047.13;5025504;28;20230;-74
2021/06/27 01:07:51;;;;;;;265.23;127.78;;;;;;;18.08;86.02;98050.75;5029001;28;20598;-72
2021/06/27 01:10:18;;;;;;;263.05;125.15;;;;;;;18.18;84.49;98050.09;5029936;28;20340;-72
2021/06/27 01:12:44;;;;;;;260.63;124.30;;;;;;;18.40;84.24;98054.72;5026909;28;20207;-72
2021/06/27 01:15:13;;;;;;;266.42;127.15;;;;;;;18.46;84.57;98052.47;5025575;28;20242;-72
2021/06/27 01:17:40;;;;;;;263.40;126.78;;;;;;;18.54;83.95;98049.25;5026808;28;20223;-72
2021/06/27 01:20:11;;;;;;;269.83;123.50;;;;;;;18.35;83.57;98048.94;5027256;28;20203;-72
2021/06/27 01:22:40;;;;;;;268.60;125.00;;;;;;;17.88;84.37;98052.19;5025539;28;20222;-72
2021/06/27 01:25:08;;;;;;;258.35;126.22;;;;;;;18.06;85.69;98054.47;5027445;28;20964;-72
2021/06/27 01:27:35;;;;;;;262.42;129.90;;;;;;;17.92;84.65;98053.66;5025642;28;20238;-72
2021/06/27 01:30:02;;;;;;;264.45;127.75;;;;;;;18.04;85.94;98053.75;5026432;28;20249;-72
2021/06/27 01:32:28;;;;;;;269.95;126.30;;;;;;;17.80;84.16;98048.38;5006143;28;20243;-72
2021/06/27 01:34:55;;;;;;;268.98;131.75;;;;;;;17.73;86.34;98054.06;5006943;28;20249;-72
2021/06/27 01:37:21;;;;;;;265.45;128.32;;;;;;;17.61;85.22;98044.38;5007159;28;20951;-72
2021/06/27 01:39:49;;;;;;;269.00;129.48;;;;;;;17.86;84.22;98040.88;5006564;28;20711;-73
2021/06/27 01:42:16;;;;;;;276.73;128.77;;;;;;;17.85;85.41;98047.13;4993973;28;20890;-72
2021/06/27 01:44:42;;;;;;;254.40;124.95;;;;;;;17.64;84.94;98049.41;4994639;28;20246;-72
2021/06/27 01:47:09;;;;;;;265.05;126.18;;;;;;;17.63;84.29;98052.19;4992082;28;20745;-72
2021/06/27 01:49:35;;;;;;;261.40;125.10;;;;;;;17.70;85.41;98048.16;4993233;28;20242;-73
2021/06/27 01:52:02;;;;;;;271.45;126.15;;;;;;;17.66;84.70;98051.94;4992486;28;20239;-73
2021/06/27 01:54:28;;;;;;;262.63;122.85;;;;;;;17.70;85.06;98051.66;4993248;28;20240;-72
2021/06/27 01:56:56;;;;;;;273.60;128.45;;;;;;;18.01;83.74;98043.41;4992507;28;20243;-72
2021/06/27 01:59:23;;;;;;;269.23;124.70;;;;;;;18.03;83.82;98045.00;4995943;28;20212;-72
2021/06/27 02:01:49;;;;;;;271.80;123.63;;;;;;;18.20;84.90;98041.16;4992477;28;20247;-72
2021/06/27 02:04:16;;;;;;;255.13;123.85;;;;;;;18.02;84.14;98038.00;4993366;28;20244;-72
2021/06/27 02:06:43;;;;;;;259.67;125.82;;;;;;;18.01;84.13;98035.47;4991939;28;20238;-72
2021/06/27 02:09:12;;;;;;;261.60;123.40;;;;;;;18.18;84.35;98036.91;4993531;28;20230;-72
2021/06/27 02:11:38;;;;;;;291.30;129.43;;;;;;;18.25;84.39;98031.09;4992577;28;20231;-72
2021/06/27 02:14:07;;;;;;;270.63;124.00;;;;;;;18.09;81.92;98030.50;4994681;28;20244;-72
2021/06/27 02:16:34;;;;;;;279.45;130.73;;;;;;;18.21;83.72;98023.50;4992371;28;20247;-72
2021/06/27 02:19:01;;;;;;;250.95;125.03;;;;;;;17.80;84.06;98028.09;4993424;28;20773;-72
2021/06/27 02:21:30;;;;;;;272.48;128.35;;;;;;;18.13;82.93;98024.06;4992797;28;20259;-72
2021/06/27 02:23:57;;;;;;;264.65;131.50;;;;;;;17.83;84.66;98025.25;4993642;28;20343;-72
2021/06/27 02:26:25;;;;;;;265.80;126.03;;;;;;;17.81;82.64;98024.53;4990051;28;20243;-72
2021/06/27 02:28:52;;;;;;;263.25;126.13;;;;;;;18.08;83.39;98031.44;4990459;28;20228;-72
2021/06/27 02:31:20;;;;;;;263.48;121.38;;;;;;;17.77;84.46;98033.56;4992929;28;20670;-72
2021/06/27 02:33:47;;;;;;;259.02;124.53;;;;;;;17.89;84.65;98027.47;4992855;28;20224;-72
2021/06/27 02:36:14;;;;;;;261.42;126.07;;;;;;;17.66;83.77;98030.84;4991382;28;20980;-72
2021/06/27 02:38:41;;;;;;;264.08;126.95;;;;;;;17.51;84.89;98032.75;4992708;28;20227;-72
2021/06/27 02:41:09;;;;;;;275.88;131.10;;;;;;;17.42;85.17;98039.50;4993870;28;20240;-72
2021/06/27 02:43:36;;;;;;;253.40;121.88;;;;;;;17.26;85.07;98039.72;4993527;28;20738;-74
2021/06/27 02:46:03;;;;;;;256.98;120.88;;;;;;;17.44;84.83;98035.00;4993746;28;20246;-72
2021/06/27 02:48:31;;;;;;;269.73;129.55;;;;;;;17.48;86.77;98032.97;4992990;28;20223;-72
2021/06/27 02:50:59;;;;;;;267.58;128.05;;;;;;;17.28;85.11;98036.97;4994144;28;20251;-72
2021/06/27 02:53:25;;;;;;;272.17;122.78;;;;;;;17.26;87.43;98034.44;4992153;28;20298;-72
2021/06/27 02:56:07;;;;;;;260.17;124.38;;;;;;;17.14;86.66;98035.25;4992495;28;20251;-72
2021/06/27 02:58:34;;;;;;;270.40;123.00;;;;;;;17.50;87.13;98026.66;4991313;28;20298;-73
2021/06/27 03:01:00;;;;;;;263.15;125.97;;;;;;;17.63;86.17;98033.72;4992200;28;20757;-73
2021/06/27 03:03:27;;;;;;;270.98;124.03;;;;;;;17.46;85.37;98033.09;4994122;28;20230;-73
2021/06/27 03:05:55;;;;;;;260.95;120.95;;;;;;;17.44;84.55;98037.63;4991873;28;20248;-73
2021/06/27 03:08:21;;;;;;;265.48;122.50;;;;;;;17.46;85.37;98040.13;4991321;28;20542;-72
2021/06/27 03:10:48;;;;;;;279.60;127.38;;;;;;;17.35;84.74;98040.88;4994521;28;20243;-72
2021/06/27 03:13:14;;;;;;;262.67;121.70;;;;;;;17.52;85.53;98040.56;4993044;28;20226;-72
2021/06/27 03:15:41;;;;;;;263.67;123.18;;;;;;;17.55;84.45;98039.50;4994148;28;20248;-72
2021/06/27 03:18:07;;;;;;;270.70;124.50;;;;;;;17.59;85.33;98045.41;4991162;28;20216;-72
2021/06/27 03:20:34;;;;;;;261.27;122.63;;;;;;;17.86;86.21;98046.16;4990717;28;20239;-72
2021/06/27 03:23:02;;;;;;;271.98;124.60;;;;;;;17.70;84.78;98046.38;4994653;28;20220;-72
2021/06/27 03:25:30;;;;;;;278.02;126.25;;;;;;;17.77;86.71;98038.84;4988777;28;20267;-72
2021/06/27 03:27:57;;;;;;;267.52;124.95;;;;;;;17.51;84.29;98038.88;4991917;28;20220;-72
2021/06/27 03:30:23;;;;;;;276.55;123.30;;;;;;;17.87;84.54;98045.22;4991541;28;20255;-72
2021/06/27 03:32:50;;;;;;;266.63;124.00;;;;;;;17.56;85.79;98035.09;4990903;28;20223;-72
2021/06/27 03:35:17;;;;;;;272.80;122.53;;;;;;;17.83;84.94;98035.81;4992832;28;20251;-72
2021/06/27 03:37:50;;;;;;;262.77;120.25;;;;;;;17.85;85.07;98038.38;4989711;28;20267;-72
2021/06/27 03:40:19;;;;;;;267.20;127.22;;;;;;;17.93;84.97;98033.38;4992111;28;20219;-72
2021/06/27 03:42:47;;;;;;;266.00;124.95;;;;;;;18.06;84.90;98043.91;4995299;28;20231;-72
2021/06/27 03:45:14;;;;;;;268.77;122.53;;;;;;;17.77;85.10;98041.50;4991811;28;20749;-72
2021/06/27 03:47:41;;;;;;;266.20;123.63;;;;;;;17.82;84.48;98042.03;4992950;28;20223;-72
2021/06/27 03:50:08;;;;;;;259.45;122.38;;;;;;;17.69;84.37;98042.03;4990006;28;20248;-72
2021/06/27 03:52:35;;;;;;;273.55;124.07;;;;;;;17.96;84.45;98048.16;4992188;28;20634;-72
2021/06/27 03:55:02;;;;;;;270.13;120.13;;;;;;;17.62;84.35;98047.84;4990812;28;20250;-72
2021/06/27 03:57:29;;;;;;;275.23;126.70;;;;;;;17.88;85.13;98048.69;4992238;28;20979;-72
2021/06/27 03:59:56;;;;;;;268.23;122.57;;;;;;;17.82;85.15;98049.09;4990851;28;20211;-72
2021/06/27 04:02:22;;;;;;;273.88;125.85;;;;;;;17.69;85.25;98044.66;4992896;28;20816;-72
2021/06/27 04:04:49;;;;;;;264.08;125.03;;;;;;;17.64;85.58;98045.94;4991869;28;20242;-72
2021/06/27 04:07:15;;;;;;;267.85;125.78;;;;;;;18.09;85.57;98043.72;4988171;28;20250;-72
2021/06/27 04:09:42;;;;;;;255.52;125.68;;;;;;;18.07;84.51;98042.97;4990913;28;20676;-72
2021/06/27 04:12:09;;;;;;;264.88;126.13;;;;;;;17.70;86.14;98035.81;4989790;28;20239;-72
2021/06/27 04:14:37;;;;;;;256.77;122.22;;;;;;;17.74;85.20;98033.81;4992446;28;20239;-72
2021/06/27 04:17:04;;;;;;;275.38;125.80;;;;;;;17.71;85.14;98023.47;4987695;28;20591;-73
2021/06/27 04:19:31;;;;;;;271.55;127.20;;;;;;;17.82;85.58;98026.19;4992395;28;20215;-72
2021/06/27 04:21:57;;;;;;;273.90;124.90;;;;;;;17.67;85.20;98019.34;4990497;28;20240;-72
2021/06/27 04:24:24;;;;;;;272.70;123.22;;;;;;;17.77;85.50;98017.75;4989022;28;20728;-72
2021/06/27 04:26:51;;;;;;;272.52;128.68;;;;;;;17.75;85.20;98014.38;4989681;28;20326;-72
2021/06/27 04:29:17;;;;;;;261.73;123.18;;;;;;;17.83;84.71;98014.69;4990520;28;20223;-72
2021/06/27 04:31:45;;;;;;;288.10;133.82;;;;;;;17.73;85.40;98009.19;4991778;28;20251;-72
2021/06/27 04:34:12;;;;;;;271.23;127.15;;;;;;;17.78;84.82;98011.53;4992369;28;20234;-72
2021/06/27 04:36:39;;;;;;;262.23;122.65;;;;;;;17.94;84.39;98007.84;4990642;28;20239;-72
2021/06/27 04:39:06;;;;;;;323.45;140.70;;;;;;;17.92;84.90;98007.97;4991139;28;20239;-72
2021/06/27 04:41:34;;;;;;;282.90;130.45;;;;;;;18.07;83.73;98000.75;4990592;28;20275;-73
2021/06/27 04:44:00;;;;;;;268.02;127.93;;;;;;;18.01;84.57;98003.81;4988600;28;20236;-72
2021/06/27 04:46:27;;;;;;;277.13;128.02;;;;;;;18.07;83.25;98004.22;4989931;28;20243;-72
2021/06/27 04:48:55;;;;;;;270.30;124.82;;;;;;;18.05;84.24;98010.56;4991838;28;20215;-72
2021/06/27 04:51:21;;;;;;;268.60;127.65;;;;;;;18.24;83.92;98010.09;4986857;28;20247;-72
2021/06/27 04:53:48;;;;;;;262.88;126.90;;;;;;;18.29;82.79;98016.72;4991759;28;20215;-72
2021/06/27 04:56:14;;;;;;;272.55;132.15;;;;;;;18.45;82.49;98005.03;4989078;28;20299;-72
2021/06/27 04:58:41;;;;;;;248.98;120.90;;;;;;;18.39;83.34;98010.78;4990540;28;20224;-72
2021/06/27 05:01:07;;;;;;;269.17;128.30;;;;;;;18.66;81.40;98000.00;4991107;28;20242;-72
2021/06/27 05:03:34;;;;;;;269.88;128.75;;;;;;;18.54;81.49;97998.25;4991716;28;20220;-72
2021/06/27 05:06:03;;;;;;;276.83;130.35;;;;;;;18.62;81.95;98002.00;4989944;28;20729;-73
2021/06/27 05:08:29;;;;;;;265.85;131.40;;;;;;;18.64;82.13;97992.16;4993694;28;20682;-72
2021/06/27 05:10:56;;;;;;;271.80;131.75;;;;;;;18.88;80.31;97999.25;4991091;28;20290;-72
2021/06/27 05:13:23;;;;;;;269.65;127.43;;;;;;;18.84;79.97;97995.16;4990520;28;20222;-72
2021/06/27 05:15:49;;;;;;;273.90;131.32;;;;;;;18.78;81.69;97998.22;4988607;28;20262;-72
2021/06/27 05:18:16;;;;;;;266.23;130.68;;;;;;;18.84;81.11;97997.81;4994410;28;20220;-72
2021/06/27 05:20:42;;;;;;;272.00;133.75;;;;;;;18.76;81.57;97997.50;4995725;28;20242;-72
2021/06/27 05:23:10;;;;;;;267.55;135.45;;;;;;;18.94;81.04;98000.59;4994828;28;20222;-72
2021/06/27 05:25:37;;;;;;;251.65;132.95;;;;;;;19.12;80.51;98001.00;4994417;28;20251;-72
2021/06/27 05:28:04;;;;;;;275.60;136.57;;;;;;;19.16;79.80;97981.31;4996619;28;20223;-72
2021/06/27 05:30:30;;;;;;;272.70;135.60;;;;;;;19.22;80.02;97980.81;4995550;28;20240;-72
2021/06/27 05:32:57;;;;;;;276.70;135.02;;;;;;;19.40;79.11;97973.28;4996597;28;20223;-72
2021/06/27 05:35:23;;;;;;;272.10;131.52;;;;;;;19.24;80.59;97970.97;4994574;28;20247;-72
2021/06/27 05:37:50;;;;;;;268.73;137.93;;;;;;;19.33;81.07;97966.78;4996417;28;20219;-72
2021/06/27 05:40:18;;;;;;;265.25;141.52;;;;;;;19.52;79.17;97966.19;4994615;28;20211;-72
2021/06/27 05:42:44;;;;;;;263.20;134.38;;;;;;;19.51;79.81;97965.34;4992213;28;20220;-72
2021/06/27 05:45:11;;;;;;;272.58;135.77;;;;;;;19.61;79.11;97970.75;4993016;28;20798;-72
2021/06/27 05:47:38;;;;;;;273.85;140.30;;;;;;;19.64;79.99;97962.59;4995890;28;20223;-72
2021/06/27 05:50:05;;;;;;;265.95;149.32;;;;;;;19.70;79.59;97964.72;4994856;28;20220;-72
2021/06/27 05:52:32;;;;;;;274.75;147.38;;;;;;;19.77;79.08;97971.25;4992987;28;20240;-74
2021/06/27 05:54:59;;;;;;;272.25;137.82;;;;;;;19.80;77.80;97968.38;4993905;28;20228;-73
2021/06/27 05:57:26;;;;;;;278.70;139.70;;;;;;;19.71;79.69;97977.00;4992528;28;20251;-72
2021/06/27 05:59:53;;;;;;;271.23;137.77;;;;;;;19.90;79.03;97983.53;4993868;28;20224;-73
2021/06/27 06:02:19;;;;;;;272.85;140.48;;;;;;;19.82;79.29;97987.63;4993001;28;20741;-72
2021/06/27 06:04:46;;;;;;;259.98;137.35;;;;;;;19.95;77.87;97984.00;4996704;28;20243;-72
2021/06/27 06:07:12;;;;;;;270.65;145.60;;;;;;;19.88;79.30;97988.09;4993420;28;20254;-72
2021/06/27 06:09:39;;;;;;;270.15;140.13;;;;;;;20.02;78.74;97980.75;4995528;28;20223;-74
2021/06/27 06:12:07;;;;;;;274.08;144.43;;;;;;;20.08;77.89;97983.88;4993041;28;20608;-74
2021/06/27 06:14:35;;;;;;;285.10;143.80;;;;;;;20.06;77.93;97985.81;4993628;28;20745;-74
2021/06/27 06:17:01;;;;;;;273.33;147.32;;;;;;;20.10;78.85;97990.72;4991235;28;20250;-74
2021/06/27 06:19:28;;;;;;;272.48;140.60;;;;;;;20.23;78.61;97994.06;4993094;28;20219;-75
2021/06/27 06:21:54;;;;;;;270.27;145.27;;;;;;;20.39;77.85;97998.13;4992707;28;20240;-74
2021/06/27 06:24:21;;;;;;;256.05;138.25;;;;;;;20.46;76.60;98004.63;4990211;28;20244;-75
2021/06/27 06:26:48;;;;;;;270.42;147.18;;;;;;;20.51;76.52;98001.56;5003942;28;20241;-74
2021/06/27 06:29:15;;;;;;;271.48;144.75;;;;;;;20.51;76.83;98001.56;5011943;28;20223;-75
2021/06/27 06:31:43;;;;;;;290.77;140.35;;;;;;;20.35;76.40;98009.94;4997335;28;21067;-74
2021/06/27 06:34:10;;;;;;;285.77;162.52;;;;;;;20.59;75.44;98001.81;4990501;28;20285;-74
2021/06/27 06:36:36;;;;;;;274.65;141.45;;;;;;;20.48;75.63;98007.97;4993520;28;20602;-74
2021/06/27 06:39:03;;;;;;;337.42;157.50;;;;;;;20.55;77.28;98009.16;4992421;28;20227;-74
2021/06/27 06:41:30;;;;;;;288.52;143.98;;;;;;;20.50;78.25;98015.81;4990237;28;20236;-74
2021/06/27 06:43:57;;;;;;;279.30;153.48;;;;;;;20.42;79.73;98019.09;4990090;28;20791;-74
2021/06/27 06:46:23;;;;;;;266.90;146.82;;;;;;;20.73;76.80;98016.59;4994420;28;20242;-75
2021/06/27 06:48:51;;;;;;;272.05;145.27;;;;;;;20.83;76.77;98012.22;4991523;28;20752;-74
2021/06/27 06:51:18;;;;;;;276.30;142.65;;;;;;;20.94;76.01;98008.69;4994073;28;20228;-74
2021/06/27 06:53:44;;;;;;;269.38;145.38;;;;;;;21.11;75.44;98009.91;4993392;28;20227;-74
2021/06/27 06:56:11;;;;;;;275.05;147.52;;;;;;;21.08;76.75;98018.09;4992862;28;20228;-75
2021/06/27 06:58:38;;;;;;;268.02;149.35;;;;;;;21.30;74.24;98014.50;4992851;28;20238;-74
2021/06/27 07:01:04;;;;;;;278.20;151.40;;;;;;;21.40;75.38;98003.94;4991623;28;20619;-74
2021/06/27 07:03:31;;;;;;;273.35;155.25;;;;;;;21.31;74.89;98005.56;4991863;28;20222;-74
2021/06/27 07:05:59;;;;;;;273.92;150.38;;;;;;;21.21;76.01;98000.22;4992826;28;20248;-74
2021/06/27 07:08:26;;;;;;;284.42;150.63;;;;;;;21.29;76.46;98008.34;4992247;28;20219;-74
2021/06/27 07:10:53;;;;;;;274.65;154.02;;;;;;;21.36;74.96;98001.56;4991610;28;20235;-75
2021/06/27 07:13:19;;;;;;;277.45;155.68;;;;;;;21.42;74.15;97996.69;4993956;28;20216;-75
2021/06/27 07:15:46;;;;;;;265.30;153.45;;;;;;;21.60;75.16;97997.81;4993759;28;20395;-74
2021/06/27 07:18:12;;;;;;;266.75;150.27;;;;;;;21.66;73.97;98001.75;4994652;28;20216;-75
2021/06/27 07:20:39;;;;;;;269.10;152.05;;;;;;;21.65;73.47;98003.56;4989542;28;20235;-75
2021/06/27 07:23:06;;;;;;;267.20;156.52;;;;;;;21.57;75.55;98000.72;4991133;28;20213;-74
2021/06/27 07:25:33;;;;;;;268.80;160.57;;;;;;;21.55;75.73;97997.34;4988587;28;20244;-74
2021/06/27 07:28:00;;;;;;;279.45;161.25;;;;;;;21.58;75.25;97997.09;4992060;28;20224;-74
2021/06/27 07:30:27;;;;;;;285.65;165.95;;;;;;;21.66;74.83;98004.41;4990391;28;20246;-74
2021/06/27 07:32:53;;;;;;;278.77;158.63;;;;;;;21.93;73.02;97995.84;4992935;28;20239;-74
2021/06/27 07:35:19;;;;;;;274.95;169.52;;;;;;;22.06;71.87;97991.13;4989890;28;20235;-74
2021/06/27 07:37:46;;;;;;;276.70;166.05;;;;;;;22.16;71.18;97990.31;4991171;28;20228;-74
2021/06/27 07:40:15;;;;;;;271.77;164.02;;;;;;;22.27;70.71;97987.56;4990113;28;20219;-74
2021/06/27 07:42:42;;;;;;;265.60;154.07;;;;;;;22.17;70.97;97981.38;4990940;28;20223;-74
2021/06/27 07:45:10;;;;;;;281.98;167.68;;;;;;;22.38;71.35;97982.13;4989599;28;20240;-73
2021/06/27 07:47:36;;;;;;;280.60;163.68;;;;;;;22.45;71.49;97983.25;4992024;28;20216;-75
2021/06/27 07:50:03;;;;;;;272.13;160.88;;;;;;;22.57;70.86;97981.31;4994227;28;20306;-72
2021/06/27 07:52:30;;;;;;;265.25;160.70;;;;;;;22.69;70.97;97971.38;4988012;28;20693;-74
2021/06/27 07:54:56;;;;;;;287.10;174.75;;;;;;;22.61;70.81;97973.91;4993260;28;20243;-75
2021/06/27 07:57:24;;;;;;;278.30;163.02;;;;;;;22.66;71.18;97971.66;4992195;28;20231;-75
2021/06/27 07:59:51;;;;;;;279.98;166.25;;;;;;;22.62;71.02;97976.41;4991963;28;20224;-75
2021/06/27 08:02:17;;;;;;;278.88;169.60;;;;;;;22.87;70.87;97969.69;4990953;28;20227;-74
2021/06/27 08:04:44;;;;;;;272.60;164.07;;;;;;;22.85;69.87;97971.66;4993137;28;20699;-74
2021/06/27 08:07:10;;;;;;;288.38;172.68;;;;;;;22.89;70.12;97972.22;4991585;28;20235;-74
2021/06/27 08:09:37;;;;;;;278.63;168.15;;;;;;;23.06;69.41;97974.16;4990740;28;20226;-75
2021/06/27 08:12:04;;;;;;;293.50;173.25;;;;;;;23.04;67.89;97964.66;4992770;28;20236;-74
2021/06/27 08:14:32;;;;;;;301.83;176.95;;;;;;;23.08;68.01;97966.03;4990108;28;20240;-74
2021/06/27 08:16:58;;;;;;;290.60;176.00;;;;;;;23.27;67.74;97966.00;4991277;28;20799;-74
2021/06/27 08:19:25;;;;;;;278.02;173.02;;;;;;;23.13;67.89;97971.78;4991974;28;20316;-74
2021/06/27 08:21:52;;;;;;;295.77;174.50;;;;;;;23.33;67.32;97963.78;4990835;28;20247;-75
2021/06/27 08:24:18;;;;;;;271.42;178.23;;;;;;;23.30;68.00;97964.88;4990687;28;20232;-75
2021/06/27 08:26:45;;;;;;;280.00;169.02;;;;;;;23.35;69.56;97967.13;4989533;28;20654;-75
2021/06/27 08:29:11;;;;;;;279.25;172.32;;;;;;;23.44;69.76;97966.25;4990492;28;20234;-74
2021/06/27 08:31:39;;;;;;;341.25;200.40;;;;;;;23.39;67.44;97971.16;4988330;28;20250;-74
2021/06/27 08:34:05;;;;;;;272.75;178.85;;;;;;;23.61;67.31;97961.97;4988443;28;20228;-74
2021/06/27 08:36:32;;;;;;;288.42;182.57;;;;;;;23.63;66.48;97966.16;4989401;28;20793;-74
2021/06/27 08:38:59;;;;;;;359.27;195.63;;;;;;;23.60;66.72;97966.47;4988655;28;20647;-75
2021/06/27 08:41:25;;;;;;;290.90;187.18;;;;;;;23.60;67.53;97966.47;4987213;28;20240;-75
2021/06/27 08:43:52;;;;;;;278.20;182.52;;;;;;;23.52;67.32;97965.53;4989967;28;20219;-72
2021/06/27 08:46:20;;;;;;;284.05;184.27;;;;;;;23.54;68.41;97972.34;4987981;28;20243;-73
2021/06/27 08:48:48;;;;;;;280.33;179.75;;;;;;;23.55;65.84;97967.91;4988975;28;20223;-73
2021/06/27 08:51:15;;;;;;;278.83;181.55;;;;;;;23.77;67.14;97972.84;4993478;28;20239;-73
2021/06/27 08:53:42;;;;;;;295.10;181.35;;;;;;;23.78;66.70;97971.00;4993165;28;20204;-72
2021/06/27 08:56:10;;;;;;;281.33;182.18;;;;;;;23.86;67.29;97960.50;4995132;28;20546;-72
2021/06/27 08:58:38;;;;;;;285.73;185.60;;;;;;;24.04;67.74;97960.53;4993564;28;20314;-72
2021/06/27 09:01:07;;;;;;;307.98;189.38;;;;;;;24.06;67.74;97953.25;4993064;28;20258;-73
2021/06/27 09:03:33;;;;;;;276.25;187.00;;;;;;;24.07;65.75;97962.91;4991556;28;20299;-72
2021/06/27 09:06:02;;;;;;;293.02;195.00;;;;;;;24.22;64.63;97958.75;4989515;28;20250;-72
2021/06/27 09:08:28;;;;;;;300.35;200.68;;;;;;;24.31;64.98;97959.66;4990724;28;20213;-73
2021/06/27 09:10:55;;;;;;;288.27;196.90;;;;;;;24.34;65.72;97963.88;4994477;28;20240;-73
2021/06/27 09:13:38;;;;;;;286.20;196.15;;;;;;;24.28;64.41;97954.66;4993032;28;20235;-73
2021/06/27 09:16:17;;;;;;;275.38;188.05;;;;;;;24.49;65.71;97950.84;4992465;28;20331;-72
2021/06/27 09:18:44;;;;;;;276.92;189.70;;;;;;;24.50;64.93;97952.50;4993953;28;20208;-73
2021/06/27 09:21:12;;;;;;;303.77;193.60;;;;;;;24.62;65.18;97948.66;4992690;28;20249;-73
2021/06/27 09:23:40;;;;;;;280.42;196.32;;;;;;;24.70;64.44;97954.06;4993538;28;20199;-72
2021/06/27 09:26:08;;;;;;;284.33;200.45;;;;;;;24.79;61.11;97947.81;4993564;28;20322;-73
2021/06/27 09:28:43;;;;;;;277.20;201.98;;;;;;;24.92;64.31;97952.72;4993176;28;20207;-73
2021/06/27 09:31:09;;;;;;;314.75;207.73;;;;;;;25.12;62.35;97955.22;4989773;28;20242;-73
2021/06/27 09:33:36;;;;;;;293.83;200.15;;;;;;;25.12;61.11;97958.72;4994147;28;20319;-73
2021/06/27 09:36:04;;;;;;;305.05;216.20;;;;;;;24.99;62.16;97952.97;4988665;28;20239;-73
2021/06/27 09:38:37;;;;;;;293.63;222.90;;;;;;;24.88;60.54;97940.69;4993039;28;20227;-73
2021/06/27 09:41:07;;;;;;;311.70;221.95;;;;;;;24.87;60.13;97928.38;4989465;28;20240;-73
2021/06/27 09:43:35;;;;;;;295.50;212.18;;;;;;;24.95;61.44;97930.25;4994240;28;20211;-73
2021/06/27 09:46:10;;;;;;;288.98;215.80;;;;;;;24.97;62.26;97925.59;4992933;28;20758;-72
2021/06/27 09:48:49;;;;;;;291.98;219.10;;;;;;;25.09;61.01;97929.69;4993354;28;20448;-73
2021/06/27 09:51:16;;;;;;;279.30;209.23;;;;;;;25.12;64.39;97934.69;4990075;28;20262;-72
2021/06/27 09:53:45;;;;;;;294.92;215.52;;;;;;;25.30;61.31;97928.50;4991201;28;20717;-72
2021/06/27 09:56:12;;;;;;;277.35;214.25;;;;;;;25.39;61.55;97930.22;4992772;28;20302;-73
2021/06/27 09:58:39;;;;;;;285.25;209.82;;;;;;;25.54;60.26;97931.31;4992289;28;20219;-73
2021/06/27 10:01:21;;;;;;;309.35;224.80;;;;;;;25.38;58.64;97928.53;4992044;28;20240;-72
2021/06/27 10:03:52;;;;;;;276.55;217.90;;;;;;;25.52;61.28;97933.28;4993992;28;20247;-73
2021/06/27 10:06:19;;;;;;;293.20;220.15;;;;;;;25.61;58.10;97922.66;4991134;28;20270;-73
2021/06/27 10:08:47;;;;;;;283.23;212.07;;;;;;;25.68;59.07;97929.06;4992177;28;20711;-72
2021/06/27 10:11:16;;;;;;;287.50;220.75;;;;;;;25.57;56.70;97922.97;4990649;28;20251;-72
2021/06/27 10:13:43;;;;;;;292.20;223.93;;;;;;;25.53;54.79;97918.09;4995043;28;21378;-72
2021/06/27 10:16:16;;;;;;;285.70;229.00;;;;;;;25.92;56.43;97921.16;4992796;28;20780;-73
2021/06/27 10:18:43;;;;;;;280.38;226.15;;;;;;;25.87;55.40;97915.41;4994267;28;20669;-73
2021/06/27 10:21:10;;;;;;;306.35;234.85;;;;;;;26.00;55.07;97914.16;4992262;28;20248;-73
2021/06/27 10:23:37;;;;;;;298.35;246.48;;;;;;;26.05;58.80;97906.50;4992489;28;20231;-73
2021/06/27 10:26:05;;;;;;;290.67;227.05;;;;;;;25.96;54.97;97909.13;4992258;28;20282;-73
2021/06/27 10:28:34;;;;;;;295.92;242.25;;;;;;;26.21;56.95;97919.88;4990087;28;20215;-72
2021/06/27 10:31:01;;;;;;;315.08;246.57;;;;;;;26.21;56.03;97919.88;4992621;28;20262;-73
2021/06/27 10:33:28;;;;;;;292.92;227.98;;;;;;;26.30;55.81;97912.69;4992502;28;20250;-72
2021/06/27 10:35:54;;;;;;;296.50;235.38;;;;;;;26.28;54.95;97918.22;4993473;28;20247;-73
2021/06/27 10:38:23;;;;;;;291.88;232.00;;;;;;;25.84;54.13;97906.88;4991601;28;20227;-73
2021/06/27 10:40:52;;;;;;;279.23;236.68;;;;;;;26.28;53.94;97912.88;4989563;28;20254;-73
2021/06/27 10:43:20;;;;;;;297.25;243.43;;;;;;;26.25;53.88;97907.84;4991624;28;20220;-73
2021/06/27 10:46:00;;;;;;;283.92;238.73;;;;;;;26.49;53.21;97909.72;4989771;28;20258;-72
2021/06/27 10:48:38;;;;;;;300.55;250.68;;;;;;;26.62;53.70;97914.59;4992687;28;20224;-73
2021/06/27 10:51:06;;;;;;;302.95;243.15;;;;;;;26.56;50.37;97909.91;4991752;28;20250;-72
2021/06/27 10:54:06;;;;;;;305.15;237.43;;;;;;;26.58;53.60;97913.25;4989776;28;20376;-73
2021/06/27 10:57:01;;;;;;;299.38;260.63;;;;;;;26.72;50.37;97912.63;4992560;28;20243;-73
2021/06/27 10:59:56;;;;;;;295.77;249.73;;;;;;;26.88;51.01;97905.56;4955668;28;20231;-72
2021/06/27 11:02:36;;;;;;;299.70;248.32;;;;;;;26.63;49.82;97897.53;4988888;28;20232;-73
2021/06/27 11:05:43;;;;;;;310.05;253.93;;;;;;;26.79;51.20;97901.22;4992967;28;20231;-73